sensor_id;sensor_type;location;lat;lon;timestamp;P1;durP1;ratioP1;P2;durP2;ratioP2
26014;SDS011;13793;55.388;37.844;2023-03-01T00:01:09;6.00;;;1.47;;
26014;SDS011;13793;55.388;37.844;2023-03-01T00:03:41;2.60;;;1.00;;
26014;SDS011;13793;55.388;37.844;2023-03-01T00:06:12;5.50;;;2.07;;
26014;SDS011;13793;55.388;37.844;2023-03-01T00:08:43;8.57;;;3.43;;
26014;SDS011;13793;55.388;37.844;2023-03-01T00:13:51;18.00;;;6.53;;
26014;SDS011;13793;55.388;37.844;2023-03-01T00:16:27;19.93;;;6.83;;
26014;SDS011;13793;55.388;37.844;2023-03-01T00:18:59;14.77;;;4.93;;
26014;SDS011;13793;55.388;37.844;2023-03-01T00:21:29;15.90;;;6.07;;
26014;SDS011;13793;55.388;37.844;2023-03-01T00:24:00;15.10;;;5.27;;
26014;SDS011;13793;55.388;37.844;2023-03-01T00:26:31;14.00;;;4.97;;
26014;SDS011;13793;55.388;37.844;2023-03-01T00:29:02;11.87;;;5.00;;
26014;SDS011;13793;55.388;37.844;2023-03-01T00:31:33;11.60;;;5.00;;
26014;SDS011;13793;55.388;37.844;2023-03-01T00:34:04;12.47;;;5.30;;
26014;SDS011;13793;55.388;37.844;2023-03-01T00:36:37;8.07;;;3.87;;
26014;SDS011;13793;55.388;37.844;2023-03-01T00:39:10;9.33;;;4.40;;
26014;SDS011;13793;55.388;37.844;2023-03-01T00:41:41;10.03;;;4.20;;
26014;SDS011;13793;55.388;37.844;2023-03-01T00:44:12;10.53;;;4.20;;
26014;SDS011;13793;55.388;37.844;2023-03-01T00:46:43;6.80;;;3.30;;
26014;SDS011;13793;55.388;37.844;2023-03-01T00:49:14;6.53;;;3.03;;
26014;SDS011;13793;55.388;37.844;2023-03-01T00:51:45;6.43;;;2.57;;
26014;SDS011;13793;55.388;37.844;2023-03-01T00:54:16;3.50;;;1.93;;
26014;SDS011;13793;55.388;37.844;2023-03-01T00:56:48;3.20;;;1.80;;
26014;SDS011;13793;55.388;37.844;2023-03-01T00:59:19;2.90;;;1.50;;
26014;SDS011;13793;55.388;37.844;2023-03-01T01:01:50;3.90;;;1.40;;
26014;SDS011;13793;55.388;37.844;2023-03-01T01:04:20;3.40;;;1.47;;
26014;SDS011;13793;55.388;37.844;2023-03-01T01:06:51;1.60;;;1.10;;
26014;SDS011;13793;55.388;37.844;2023-03-01T01:09:22;3.13;;;1.20;;
26014;SDS011;13793;55.388;37.844;2023-03-01T01:11:53;4.90;;;1.40;;
26014;SDS011;13793;55.388;37.844;2023-03-01T01:14:23;2.13;;;1.30;;
26014;SDS011;13793;55.388;37.844;2023-03-01T01:16:55;3.40;;;1.33;;
26014;SDS011;13793;55.388;37.844;2023-03-01T01:19:26;5.57;;;1.70;;
26014;SDS011;13793;55.388;37.844;2023-03-01T01:21:57;2.13;;;1.00;;
26014;SDS011;13793;55.388;37.844;2023-03-01T01:24:28;2.70;;;1.30;;
26014;SDS011;13793;55.388;37.844;2023-03-01T01:26:58;4.73;;;1.30;;
26014;SDS011;13793;55.388;37.844;2023-03-01T01:29:29;4.43;;;1.60;;
26014;SDS011;13793;55.388;37.844;2023-03-01T01:32:00;5.23;;;1.50;;
26014;SDS011;13793;55.388;37.844;2023-03-01T01:34:30;2.57;;;1.30;;
26014;SDS011;13793;55.388;37.844;2023-03-01T01:37:01;5.13;;;1.53;;
26014;SDS011;13793;55.388;37.844;2023-03-01T01:39:32;2.70;;;1.37;;
26014;SDS011;13793;55.388;37.844;2023-03-01T01:42:03;7.70;;;2.10;;
26014;SDS011;13793;55.388;37.844;2023-03-01T01:44:34;4.43;;;1.53;;
26014;SDS011;13793;55.388;37.844;2023-03-01T01:47:11;2.33;;;1.47;;
26014;SDS011;13793;55.388;37.844;2023-03-01T01:49:47;3.03;;;1.30;;
26014;SDS011;13793;55.388;37.844;2023-03-01T01:52:26;4.83;;;1.80;;
26014;SDS011;13793;55.388;37.844;2023-03-01T01:55:11;3.80;;;1.30;;
26014;SDS011;13793;55.388;37.844;2023-03-01T01:57:52;5.07;;;1.70;;
26014;SDS011;13793;55.388;37.844;2023-03-01T02:00:22;6.03;;;1.60;;
26014;SDS011;13793;55.388;37.844;2023-03-01T02:03:02;5.30;;;2.07;;
26014;SDS011;13793;55.388;37.844;2023-03-01T02:08:21;7.37;;;1.60;;
26014;SDS011;13793;55.388;37.844;2023-03-01T02:10:54;5.03;;;1.40;;
26014;SDS011;13793;55.388;37.844;2023-03-01T02:13:28;4.83;;;1.80;;
26014;SDS011;13793;55.388;37.844;2023-03-01T02:15:59;4.47;;;1.60;;
26014;SDS011;13793;55.388;37.844;2023-03-01T02:18:35;4.75;;;1.55;;
26014;SDS011;13793;55.388;37.844;2023-03-01T02:24:07;5.00;;;2.40;;
26014;SDS011;13793;55.388;37.844;2023-03-01T02:26:50;9.60;;;3.47;;
26014;SDS011;13793;55.388;37.844;2023-03-01T02:29:24;12.00;;;4.97;;
26014;SDS011;13793;55.388;37.844;2023-03-01T02:31:56;11.07;;;4.43;;
26014;SDS011;13793;55.388;37.844;2023-03-01T02:34:27;8.70;;;3.73;;
26014;SDS011;13793;55.388;37.844;2023-03-01T02:37:07;9.47;;;3.43;;
26014;SDS011;13793;55.388;37.844;2023-03-01T02:39:40;10.30;;;3.73;;
26014;SDS011;13793;55.388;37.844;2023-03-01T02:42:14;7.67;;;3.90;;
26014;SDS011;13793;55.388;37.844;2023-03-01T02:44:47;11.63;;;4.50;;
26014;SDS011;13793;55.388;37.844;2023-03-01T02:47:19;7.47;;;4.00;;
26014;SDS011;13793;55.388;37.844;2023-03-01T02:49:49;8.87;;;3.87;;
26014;SDS011;13793;55.388;37.844;2023-03-01T02:52:26;7.93;;;3.43;;
26014;SDS011;13793;55.388;37.844;2023-03-01T02:57:36;6.23;;;2.80;;
26014;SDS011;13793;55.388;37.844;2023-03-01T03:00:23;5.00;;;1.73;;
26014;SDS011;13793;55.388;37.844;2023-03-01T03:02:54;4.27;;;1.50;;
26014;SDS011;13793;55.388;37.844;2023-03-01T03:05:28;4.73;;;1.37;;
26014;SDS011;13793;55.388;37.844;2023-03-01T03:08:00;4.50;;;1.23;;
26014;SDS011;13793;55.388;37.844;2023-03-01T03:10:33;2.70;;;1.30;;
26014;SDS011;13793;55.388;37.844;2023-03-01T03:13:09;3.03;;;1.63;;
26014;SDS011;13793;55.388;37.844;2023-03-01T03:15:42;5.63;;;1.93;;
26014;SDS011;13793;55.388;37.844;2023-03-01T03:18:14;6.27;;;2.33;;
26014;SDS011;13793;55.388;37.844;2023-03-01T03:20:45;5.47;;;2.13;;
26014;SDS011;13793;55.388;37.844;2023-03-01T03:23:16;4.67;;;1.40;;
26014;SDS011;13793;55.388;37.844;2023-03-01T03:25:50;3.40;;;1.80;;
26014;SDS011;13793;55.388;37.844;2023-03-01T03:28:21;4.70;;;1.67;;
26014;SDS011;13793;55.388;37.844;2023-03-01T03:30:52;4.53;;;1.50;;
26014;SDS011;13793;55.388;37.844;2023-03-01T03:33:22;4.60;;;2.10;;
26014;SDS011;13793;55.388;37.844;2023-03-01T03:35:53;6.27;;;1.73;;
26014;SDS011;13793;55.388;37.844;2023-03-01T03:38:24;5.57;;;1.70;;
26014;SDS011;13793;55.388;37.844;2023-03-01T03:41:02;3.40;;;1.80;;
26014;SDS011;13793;55.388;37.844;2023-03-01T03:43:34;5.53;;;2.43;;
26014;SDS011;13793;55.388;37.844;2023-03-01T03:46:06;4.80;;;2.10;;
26014;SDS011;13793;55.388;37.844;2023-03-01T03:48:38;4.77;;;2.20;;
26014;SDS011;13793;55.388;37.844;2023-03-01T03:51:13;8.17;;;2.80;;
26014;SDS011;13793;55.388;37.844;2023-03-01T03:53:45;8.83;;;3.10;;
26014;SDS011;13793;55.388;37.844;2023-03-01T03:56:16;7.53;;;2.87;;
26014;SDS011;13793;55.388;37.844;2023-03-01T03:58:46;8.00;;;3.37;;
26014;SDS011;13793;55.388;37.844;2023-03-01T04:01:17;6.53;;;3.23;;
26014;SDS011;13793;55.388;37.844;2023-03-01T04:03:48;3.37;;;2.00;;
26014;SDS011;13793;55.388;37.844;2023-03-01T04:06:20;5.90;;;2.00;;
26014;SDS011;13793;55.388;37.844;2023-03-01T04:08:50;2.40;;;1.80;;
26014;SDS011;13793;55.388;37.844;2023-03-01T04:11:22;5.73;;;1.60;;
26014;SDS011;13793;55.388;37.844;2023-03-01T04:13:56;3.87;;;1.70;;
26014;SDS011;13793;55.388;37.844;2023-03-01T04:16:28;4.70;;;1.77;;
26014;SDS011;13793;55.388;37.844;2023-03-01T04:18:58;3.07;;;1.57;;
26014;SDS011;13793;55.388;37.844;2023-03-01T04:21:30;5.30;;;1.40;;
26014;SDS011;13793;55.388;37.844;2023-03-01T04:24:01;4.87;;;1.40;;
26014;SDS011;13793;55.388;37.844;2023-03-01T04:26:32;4.77;;;1.50;;
26014;SDS011;13793;55.388;37.844;2023-03-01T04:29:02;5.23;;;1.70;;
26014;SDS011;13793;55.388;37.844;2023-03-01T04:31:33;7.37;;;2.00;;
26014;SDS011;13793;55.388;37.844;2023-03-01T04:34:04;5.07;;;1.90;;
26014;SDS011;13793;55.388;37.844;2023-03-01T04:36:34;4.33;;;2.20;;
26014;SDS011;13793;55.388;37.844;2023-03-01T04:39:05;5.90;;;2.17;;
26014;SDS011;13793;55.388;37.844;2023-03-01T04:41:37;4.07;;;2.10;;
26014;SDS011;13793;55.388;37.844;2023-03-01T04:44:08;8.70;;;2.30;;
26014;SDS011;13793;55.388;37.844;2023-03-01T04:46:39;5.40;;;2.53;;
26014;SDS011;13793;55.388;37.844;2023-03-01T04:49:10;8.40;;;2.80;;
26014;SDS011;13793;55.388;37.844;2023-03-01T04:51:40;9.00;;;2.13;;
26014;SDS011;13793;55.388;37.844;2023-03-01T04:54:11;3.67;;;1.87;;
26014;SDS011;13793;55.388;37.844;2023-03-01T04:56:42;7.00;;;2.30;;
26014;SDS011;13793;55.388;37.844;2023-03-01T04:59:12;7.27;;;2.10;;
26014;SDS011;13793;55.388;37.844;2023-03-01T05:01:42;4.63;;;2.00;;
26014;SDS011;13793;55.388;37.844;2023-03-01T05:04:13;4.30;;;1.87;;
26014;SDS011;13793;55.388;37.844;2023-03-01T05:06:43;4.47;;;1.90;;
26014;SDS011;13793;55.388;37.844;2023-03-01T05:09:14;5.27;;;2.13;;
26014;SDS011;13793;55.388;37.844;2023-03-01T05:11:45;4.60;;;1.80;;
26014;SDS011;13793;55.388;37.844;2023-03-01T05:14:16;6.30;;;2.00;;
26014;SDS011;13793;55.388;37.844;2023-03-01T05:16:46;6.00;;;2.13;;
26014;SDS011;13793;55.388;37.844;2023-03-01T05:19:17;4.30;;;1.83;;
26014;SDS011;13793;55.388;37.844;2023-03-01T05:21:49;4.20;;;2.03;;
26014;SDS011;13793;55.388;37.844;2023-03-01T05:24:35;5.10;;;1.80;;
26014;SDS011;13793;55.388;37.844;2023-03-01T05:27:06;3.93;;;1.70;;
26014;SDS011;13793;55.388;37.844;2023-03-01T05:29:37;6.47;;;2.30;;
26014;SDS011;13793;55.388;37.844;2023-03-01T05:32:11;5.27;;;2.30;;
26014;SDS011;13793;55.388;37.844;2023-03-01T05:34:43;5.50;;;1.87;;
26014;SDS011;13793;55.388;37.844;2023-03-01T05:37:14;2.87;;;1.70;;
26014;SDS011;13793;55.388;37.844;2023-03-01T05:39:45;3.47;;;1.90;;
26014;SDS011;13793;55.388;37.844;2023-03-01T05:42:17;10.20;;;2.57;;
26014;SDS011;13793;55.388;37.844;2023-03-01T05:44:48;5.13;;;2.30;;
26014;SDS011;13793;55.388;37.844;2023-03-01T05:47:18;4.10;;;1.73;;
26014;SDS011;13793;55.388;37.844;2023-03-01T05:49:49;4.57;;;2.10;;
26014;SDS011;13793;55.388;37.844;2023-03-01T05:52:20;6.53;;;2.60;;
26014;SDS011;13793;55.388;37.844;2023-03-01T05:54:50;5.53;;;2.20;;
26014;SDS011;13793;55.388;37.844;2023-03-01T05:57:21;5.13;;;2.30;;
26014;SDS011;13793;55.388;37.844;2023-03-01T05:59:51;5.73;;;2.40;;
26014;SDS011;13793;55.388;37.844;2023-03-01T06:02:21;8.13;;;3.20;;
26014;SDS011;13793;55.388;37.844;2023-03-01T06:04:52;5.60;;;2.90;;
26014;SDS011;13793;55.388;37.844;2023-03-01T06:07:22;7.50;;;3.20;;
26014;SDS011;13793;55.388;37.844;2023-03-01T06:09:52;7.47;;;3.63;;
26014;SDS011;13793;55.388;37.844;2023-03-01T06:12:23;6.37;;;3.07;;
26014;SDS011;13793;55.388;37.844;2023-03-01T06:14:53;7.43;;;3.40;;
26014;SDS011;13793;55.388;37.844;2023-03-01T06:17:24;5.20;;;3.10;;
26014;SDS011;13793;55.388;37.844;2023-03-01T06:19:55;5.97;;;2.70;;
26014;SDS011;13793;55.388;37.844;2023-03-01T06:22:25;7.20;;;2.40;;
26014;SDS011;13793;55.388;37.844;2023-03-01T06:24:56;5.70;;;2.20;;
26014;SDS011;13793;55.388;37.844;2023-03-01T06:27:26;5.37;;;2.27;;
26014;SDS011;13793;55.388;37.844;2023-03-01T06:29:56;5.00;;;1.80;;
26014;SDS011;13793;55.388;37.844;2023-03-01T06:32:29;7.83;;;2.47;;
26014;SDS011;13793;55.388;37.844;2023-03-01T06:35:00;5.43;;;2.00;;
26014;SDS011;13793;55.388;37.844;2023-03-01T06:37:30;6.73;;;2.17;;
26014;SDS011;13793;55.388;37.844;2023-03-01T06:40:01;4.90;;;2.00;;
26014;SDS011;13793;55.388;37.844;2023-03-01T06:42:37;5.67;;;2.10;;
26014;SDS011;13793;55.388;37.844;2023-03-01T06:45:09;6.37;;;1.90;;
26014;SDS011;13793;55.388;37.844;2023-03-01T06:47:40;5.57;;;1.63;;
26014;SDS011;13793;55.388;37.844;2023-03-01T06:50:11;9.10;;;3.27;;
26014;SDS011;13793;55.388;37.844;2023-03-01T06:52:42;5.57;;;1.93;;
26014;SDS011;13793;55.388;37.844;2023-03-01T06:55:13;4.03;;;2.00;;
26014;SDS011;13793;55.388;37.844;2023-03-01T06:57:44;5.17;;;1.80;;
26014;SDS011;13793;55.388;37.844;2023-03-01T07:00:15;3.63;;;1.50;;
26014;SDS011;13793;55.388;37.844;2023-03-01T07:02:46;5.73;;;2.27;;
26014;SDS011;13793;55.388;37.844;2023-03-01T07:05:16;7.57;;;2.23;;
26014;SDS011;13793;55.388;37.844;2023-03-01T07:07:47;7.40;;;2.17;;
26014;SDS011;13793;55.388;37.844;2023-03-01T07:10:17;4.90;;;1.90;;
26014;SDS011;13793;55.388;37.844;2023-03-01T07:12:48;8.33;;;2.30;;
26014;SDS011;13793;55.388;37.844;2023-03-01T07:15:18;5.90;;;1.97;;
26014;SDS011;13793;55.388;37.844;2023-03-01T07:17:49;6.13;;;2.33;;
26014;SDS011;13793;55.388;37.844;2023-03-01T07:20:19;5.77;;;2.00;;
26014;SDS011;13793;55.388;37.844;2023-03-01T07:22:54;4.53;;;2.00;;
26014;SDS011;13793;55.388;37.844;2023-03-01T07:25:26;6.80;;;2.00;;
26014;SDS011;13793;55.388;37.844;2023-03-01T07:27:57;7.37;;;2.83;;
26014;SDS011;13793;55.388;37.844;2023-03-01T07:30:28;7.17;;;2.33;;
26014;SDS011;13793;55.388;37.844;2023-03-01T07:32:59;6.07;;;2.30;;
26014;SDS011;13793;55.388;37.844;2023-03-01T07:35:29;5.70;;;2.33;;
26014;SDS011;13793;55.388;37.844;2023-03-01T07:38:01;6.80;;;2.10;;
26014;SDS011;13793;55.388;37.844;2023-03-01T07:40:32;6.33;;;2.40;;
26014;SDS011;13793;55.388;37.844;2023-03-01T07:43:02;7.03;;;2.40;;
26014;SDS011;13793;55.388;37.844;2023-03-01T07:45:33;5.43;;;2.10;;
26014;SDS011;13793;55.388;37.844;2023-03-01T07:48:03;6.27;;;3.07;;
26014;SDS011;13793;55.388;37.844;2023-03-01T07:50:34;9.80;;;3.83;;
26014;SDS011;13793;55.388;37.844;2023-03-01T07:53:08;7.00;;;2.57;;
26014;SDS011;13793;55.388;37.844;2023-03-01T07:55:39;8.53;;;2.80;;
26014;SDS011;13793;55.388;37.844;2023-03-01T07:58:11;7.20;;;2.50;;
26014;SDS011;13793;55.388;37.844;2023-03-01T08:00:42;6.00;;;2.70;;
26014;SDS011;13793;55.388;37.844;2023-03-01T08:03:12;6.50;;;2.37;;
26014;SDS011;13793;55.388;37.844;2023-03-01T08:05:43;6.80;;;2.37;;
26014;SDS011;13793;55.388;37.844;2023-03-01T08:08:13;4.87;;;2.40;;
26014;SDS011;13793;55.388;37.844;2023-03-01T08:10:44;5.73;;;2.27;;
26014;SDS011;13793;55.388;37.844;2023-03-01T08:13:15;6.63;;;2.47;;
26014;SDS011;13793;55.388;37.844;2023-03-01T08:15:48;8.23;;;2.33;;
26014;SDS011;13793;55.388;37.844;2023-03-01T08:18:19;6.93;;;2.90;;
26014;SDS011;13793;55.388;37.844;2023-03-01T08:20:51;6.23;;;2.23;;
26014;SDS011;13793;55.388;37.844;2023-03-01T08:23:21;6.90;;;2.27;;
26014;SDS011;13793;55.388;37.844;2023-03-01T08:25:52;4.47;;;2.30;;
26014;SDS011;13793;55.388;37.844;2023-03-01T08:28:23;7.80;;;2.50;;
26014;SDS011;13793;55.388;37.844;2023-03-01T08:30:53;4.97;;;2.30;;
26014;SDS011;13793;55.388;37.844;2023-03-01T08:33:24;7.50;;;2.60;;
26014;SDS011;13793;55.388;37.844;2023-03-01T08:36:04;5.50;;;2.40;;
26014;SDS011;13793;55.388;37.844;2023-03-01T08:38:36;6.07;;;2.03;;
26014;SDS011;13793;55.388;37.844;2023-03-01T08:41:06;6.60;;;2.10;;
26014;SDS011;13793;55.388;37.844;2023-03-01T08:43:37;5.00;;;1.90;;
26014;SDS011;13793;55.388;37.844;2023-03-01T08:46:08;5.13;;;1.80;;
26014;SDS011;13793;55.388;37.844;2023-03-01T08:48:39;6.50;;;2.07;;
26014;SDS011;13793;55.388;37.844;2023-03-01T08:51:12;4.13;;;1.40;;
26014;SDS011;13793;55.388;37.844;2023-03-01T08:53:44;4.63;;;1.77;;
26014;SDS011;13793;55.388;37.844;2023-03-01T08:56:15;5.87;;;1.90;;
26014;SDS011;13793;55.388;37.844;2023-03-01T08:58:47;5.53;;;1.90;;
26014;SDS011;13793;55.388;37.844;2023-03-01T09:01:18;5.23;;;1.90;;
26014;SDS011;13793;55.388;37.844;2023-03-01T09:03:49;3.80;;;1.77;;
26014;SDS011;13793;55.388;37.844;2023-03-01T09:06:19;5.13;;;2.03;;
26014;SDS011;13793;55.388;37.844;2023-03-01T09:08:49;3.73;;;1.87;;
26014;SDS011;13793;55.388;37.844;2023-03-01T09:11:20;3.87;;;2.10;;
26014;SDS011;13793;55.388;37.844;2023-03-01T09:13:51;7.57;;;2.60;;
26014;SDS011;13793;55.388;37.844;2023-03-01T09:16:22;4.50;;;1.80;;
26014;SDS011;13793;55.388;37.844;2023-03-01T09:18:53;5.30;;;1.87;;
26014;SDS011;13793;55.388;37.844;2023-03-01T09:21:24;5.80;;;1.60;;
26014;SDS011;13793;55.388;37.844;2023-03-01T09:23:55;4.70;;;1.80;;
26014;SDS011;13793;55.388;37.844;2023-03-01T09:26:26;6.23;;;2.60;;
26014;SDS011;13793;55.388;37.844;2023-03-01T09:28:57;7.23;;;2.30;;
26014;SDS011;13793;55.388;37.844;2023-03-01T09:31:28;5.67;;;2.10;;
26014;SDS011;13793;55.388;37.844;2023-03-01T09:33:59;4.63;;;1.70;;
26014;SDS011;13793;55.388;37.844;2023-03-01T09:36:31;3.47;;;1.40;;
26014;SDS011;13793;55.388;37.844;2023-03-01T09:39:03;2.77;;;1.40;;
26014;SDS011;13793;55.388;37.844;2023-03-01T09:47:25;4.13;;;1.50;;
26014;SDS011;13793;55.388;37.844;2023-03-01T09:53:04;3.63;;;1.40;;
26014;SDS011;13793;55.388;37.844;2023-03-01T09:55:46;3.87;;;1.50;;
26014;SDS011;13793;55.388;37.844;2023-03-01T10:01:14;3.00;;;1.53;;
26014;SDS011;13793;55.388;37.844;2023-03-01T10:06:34;5.57;;;1.30;;
26014;SDS011;13793;55.388;37.844;2023-03-01T10:09:07;3.10;;;1.60;;
26014;SDS011;13793;55.388;37.844;2023-03-01T10:11:41;3.60;;;1.40;;
26014;SDS011;13793;55.388;37.844;2023-03-01T10:14:35;3.97;;;1.17;;
26014;SDS011;13793;55.388;37.844;2023-03-01T10:17:11;3.27;;;1.80;;
26014;SDS011;13793;55.388;37.844;2023-03-01T10:19:42;3.90;;;1.53;;
26014;SDS011;13793;55.388;37.844;2023-03-01T10:22:21;4.67;;;1.40;;
26014;SDS011;13793;55.388;37.844;2023-03-01T10:24:56;4.50;;;1.60;;
26014;SDS011;13793;55.388;37.844;2023-03-01T10:27:34;3.50;;;1.73;;
26014;SDS011;13793;55.388;37.844;2023-03-01T10:32:44;4.30;;;1.60;;
26014;SDS011;13793;55.388;37.844;2023-03-01T10:35:18;4.67;;;1.40;;
26014;SDS011;13793;55.388;37.844;2023-03-01T10:38:25;5.67;;;1.57;;
26014;SDS011;13793;55.388;37.844;2023-03-01T10:40:35;5.00;;;1.40;;
26014;SDS011;13793;55.388;37.844;2023-03-01T10:43:10;2.27;;;1.20;;
26014;SDS011;13793;55.388;37.844;2023-03-01T10:45:40;6.10;;;1.07;;
26014;SDS011;13793;55.388;37.844;2023-03-01T10:48:21;3.03;;;1.53;;
26014;SDS011;13793;55.388;37.844;2023-03-01T10:53:35;4.13;;;1.30;;
26014;SDS011;13793;55.388;37.844;2023-03-01T10:56:10;4.10;;;1.30;;
26014;SDS011;13793;55.388;37.844;2023-03-01T10:58:58;2.97;;;1.53;;
26014;SDS011;13793;55.388;37.844;2023-03-01T11:01:30;9.63;;;1.60;;
26014;SDS011;13793;55.388;37.844;2023-03-01T11:04:09;4.43;;;1.70;;
26014;SDS011;13793;55.388;37.844;2023-03-01T11:06:37;3.27;;;1.37;;
26014;SDS011;13793;55.388;37.844;2023-03-01T11:11:57;3.53;;;1.70;;
26014;SDS011;13793;55.388;37.844;2023-03-01T11:14:31;3.47;;;1.50;;
26014;SDS011;13793;55.388;37.844;2023-03-01T11:20:02;3.90;;;1.47;;
26014;SDS011;13793;55.388;37.844;2023-03-01T11:22:34;4.47;;;1.60;;
26014;SDS011;13793;55.388;37.844;2023-03-01T11:25:07;5.13;;;1.60;;
26014;SDS011;13793;55.388;37.844;2023-03-01T11:27:40;4.67;;;1.63;;
26014;SDS011;13793;55.388;37.844;2023-03-01T11:30:21;3.70;;;1.20;;
26014;SDS011;13793;55.388;37.844;2023-03-01T11:35:32;5.27;;;1.50;;
26014;SDS011;13793;55.388;37.844;2023-03-01T11:41:02;2.50;;;1.15;;
26014;SDS011;13793;55.388;37.844;2023-03-01T11:43:48;2.80;;;1.23;;
26014;SDS011;13793;55.388;37.844;2023-03-01T12:08:56;4.77;;;1.40;;
26014;SDS011;13793;55.388;37.844;2023-03-01T12:11:35;3.00;;;1.00;;
26014;SDS011;13793;55.388;37.844;2023-03-01T12:14:26;4.60;;;1.33;;
26014;SDS011;13793;55.388;37.844;2023-03-01T12:17:10;2.90;;;1.60;;
26014;SDS011;13793;55.388;37.844;2023-03-01T12:22:55;3.10;;;1.07;;
26014;SDS011;13793;55.388;37.844;2023-03-01T12:25:41;4.27;;;1.50;;
26014;SDS011;13793;55.388;37.844;2023-03-01T12:28:34;4.93;;;1.60;;
26014;SDS011;13793;55.388;37.844;2023-03-01T12:34:03;5.15;;;1.62;;
26014;SDS011;13793;55.388;37.844;2023-03-01T12:36:44;6.70;;;2.70;;
26014;SDS011;13793;55.388;37.844;2023-03-01T12:48:07;8.37;;;2.10;;
26014;SDS011;13793;55.388;37.844;2023-03-01T12:50:41;3.73;;;1.67;;
26014;SDS011;13793;55.388;37.844;2023-03-01T12:53:21;5.23;;;1.83;;
26014;SDS011;13793;55.388;37.844;2023-03-01T12:55:53;4.07;;;1.50;;
26014;SDS011;13793;55.388;37.844;2023-03-01T12:58:31;5.80;;;2.07;;
26014;SDS011;13793;55.388;37.844;2023-03-01T13:06:50;5.23;;;1.60;;
26014;SDS011;13793;55.388;37.844;2023-03-01T13:20:59;3.57;;;2.00;;
26014;SDS011;13793;55.388;37.844;2023-03-01T13:23:28;4.23;;;2.10;;
26014;SDS011;13793;55.388;37.844;2023-03-01T13:26:01;6.00;;;2.10;;
26014;SDS011;13793;55.388;37.844;2023-03-01T13:33:49;3.37;;;1.43;;
26014;SDS011;13793;55.388;37.844;2023-03-01T13:39:05;4.87;;;1.80;;
26014;SDS011;13793;55.388;37.844;2023-03-01T13:41:55;4.27;;;1.40;;
26014;SDS011;13793;55.388;37.844;2023-03-01T13:47:06;4.67;;;1.73;;
26014;SDS011;13793;55.388;37.844;2023-03-01T13:49:48;2.92;;;1.57;;
26014;SDS011;13793;55.388;37.844;2023-03-01T13:57:49;3.90;;;1.70;;
26014;SDS011;13793;55.388;37.844;2023-03-01T14:00:28;3.73;;;1.60;;
26014;SDS011;13793;55.388;37.844;2023-03-01T14:03:02;6.93;;;2.00;;
26014;SDS011;13793;55.388;37.844;2023-03-01T14:05:34;5.60;;;1.50;;
26014;SDS011;13793;55.388;37.844;2023-03-01T14:08:05;6.43;;;1.80;;
26014;SDS011;13793;55.388;37.844;2023-03-01T14:10:54;4.43;;;1.40;;
26014;SDS011;13793;55.388;37.844;2023-03-01T14:16:59;6.30;;;1.50;;
26014;SDS011;13793;55.388;37.844;2023-03-01T14:19:31;4.27;;;1.73;;
26014;SDS011;13793;55.388;37.844;2023-03-01T14:24:56;2.63;;;1.40;;
26014;SDS011;13793;55.388;37.844;2023-03-01T14:27:33;4.13;;;1.60;;
26014;SDS011;13793;55.388;37.844;2023-03-01T14:30:19;2.50;;;1.50;;
26014;SDS011;13793;55.388;37.844;2023-03-01T14:32:57;4.67;;;1.73;;
26014;SDS011;13793;55.388;37.844;2023-03-01T14:35:31;3.03;;;1.60;;
26014;SDS011;13793;55.388;37.844;2023-03-01T14:38:03;2.70;;;1.10;;
26014;SDS011;13793;55.388;37.844;2023-03-01T14:40:34;1.83;;;1.20;;
26014;SDS011;13793;55.388;37.844;2023-03-01T14:43:09;2.97;;;1.30;;
26014;SDS011;13793;55.388;37.844;2023-03-01T14:45:42;3.77;;;1.03;;
26014;SDS011;13793;55.388;37.844;2023-03-01T14:48:16;3.13;;;1.10;;
26014;SDS011;13793;55.388;37.844;2023-03-01T14:50:47;2.17;;;1.10;;
26014;SDS011;13793;55.388;37.844;2023-03-01T14:53:24;5.93;;;1.13;;
26014;SDS011;13793;55.388;37.844;2023-03-01T14:55:59;3.13;;;1.40;;
26014;SDS011;13793;55.388;37.844;2023-03-01T14:58:33;3.57;;;1.40;;
26014;SDS011;13793;55.388;37.844;2023-03-01T15:01:04;3.87;;;1.80;;
26014;SDS011;13793;55.388;37.844;2023-03-01T15:03:38;2.17;;;1.80;;
26014;SDS011;13793;55.388;37.844;2023-03-01T15:06:12;5.57;;;1.70;;
26014;SDS011;13793;55.388;37.844;2023-03-01T15:08:49;3.73;;;1.67;;
26014;SDS011;13793;55.388;37.844;2023-03-01T15:11:28;5.67;;;2.20;;
26014;SDS011;13793;55.388;37.844;2023-03-01T15:13:59;4.23;;;1.50;;
26014;SDS011;13793;55.388;37.844;2023-03-01T15:16:30;5.27;;;1.60;;
26014;SDS011;13793;55.388;37.844;2023-03-01T15:19:06;3.57;;;1.70;;
26014;SDS011;13793;55.388;37.844;2023-03-01T15:21:37;3.87;;;2.10;;
26014;SDS011;13793;55.388;37.844;2023-03-01T15:26:59;4.50;;;2.07;;
26014;SDS011;13793;55.388;37.844;2023-03-01T15:32:02;4.80;;;2.23;;
26014;SDS011;13793;55.388;37.844;2023-03-01T15:34:41;5.92;;;2.72;;
26014;SDS011;13793;55.388;37.844;2023-03-01T15:37:35;6.80;;;2.33;;
26014;SDS011;13793;55.388;37.844;2023-03-01T15:40:00;6.37;;;2.30;;
26014;SDS011;13793;55.388;37.844;2023-03-01T15:45:09;5.93;;;2.57;;
26014;SDS011;13793;55.388;37.844;2023-03-01T15:47:47;3.73;;;2.27;;
26014;SDS011;13793;55.388;37.844;2023-03-01T15:50:24;6.97;;;2.50;;
26014;SDS011;13793;55.388;37.844;2023-03-01T15:52:53;6.43;;;2.53;;
26014;SDS011;13793;55.388;37.844;2023-03-01T15:55:25;5.03;;;2.47;;
26014;SDS011;13793;55.388;37.844;2023-03-01T15:57:59;4.77;;;2.03;;
26014;SDS011;13793;55.388;37.844;2023-03-01T16:00:30;2.50;;;1.63;;
26014;SDS011;13793;55.388;37.844;2023-03-01T16:03:01;4.53;;;2.07;;
26014;SDS011;13793;55.388;37.844;2023-03-01T16:05:33;4.70;;;1.80;;
26014;SDS011;13793;55.388;37.844;2023-03-01T16:08:05;5.83;;;1.40;;
26014;SDS011;13793;55.388;37.844;2023-03-01T16:10:35;2.77;;;1.50;;
26014;SDS011;13793;55.388;37.844;2023-03-01T16:13:06;5.53;;;1.60;;
26014;SDS011;13793;55.388;37.844;2023-03-01T16:15:37;4.30;;;1.83;;
26014;SDS011;13793;55.388;37.844;2023-03-01T16:18:08;2.20;;;1.87;;
26014;SDS011;13793;55.388;37.844;2023-03-01T16:20:40;3.17;;;1.73;;
26014;SDS011;13793;55.388;37.844;2023-03-01T16:23:11;4.33;;;1.60;;
26014;SDS011;13793;55.388;37.844;2023-03-01T16:25:43;5.67;;;1.90;;
26014;SDS011;13793;55.388;37.844;2023-03-01T16:28:13;5.87;;;2.20;;
26014;SDS011;13793;55.388;37.844;2023-03-01T16:30:47;5.53;;;1.93;;
26014;SDS011;13793;55.388;37.844;2023-03-01T16:33:19;4.90;;;1.90;;
26014;SDS011;13793;55.388;37.844;2023-03-01T16:35:49;3.40;;;1.70;;
26014;SDS011;13793;55.388;37.844;2023-03-01T16:38:20;2.73;;;1.30;;
26014;SDS011;13793;55.388;37.844;2023-03-01T16:40:51;2.97;;;1.50;;
26014;SDS011;13793;55.388;37.844;2023-03-01T16:43:22;8.13;;;1.93;;
26014;SDS011;13793;55.388;37.844;2023-03-01T16:45:52;3.77;;;2.10;;
26014;SDS011;13793;55.388;37.844;2023-03-01T16:48:23;4.33;;;2.00;;
26014;SDS011;13793;55.388;37.844;2023-03-01T16:50:58;6.23;;;1.70;;
26014;SDS011;13793;55.388;37.844;2023-03-01T16:53:30;4.07;;;1.57;;
26014;SDS011;13793;55.388;37.844;2023-03-01T16:56:01;4.77;;;1.70;;
26014;SDS011;13793;55.388;37.844;2023-03-01T16:58:34;4.13;;;1.40;;
26014;SDS011;13793;55.388;37.844;2023-03-01T17:01:07;3.43;;;1.50;;
26014;SDS011;13793;55.388;37.844;2023-03-01T17:03:39;3.00;;;1.37;;
26014;SDS011;13793;55.388;37.844;2023-03-01T17:06:16;3.53;;;1.43;;
26014;SDS011;13793;55.388;37.844;2023-03-01T17:08:48;4.37;;;1.53;;
26014;SDS011;13793;55.388;37.844;2023-03-01T17:11:19;6.27;;;1.20;;
26014;SDS011;13793;55.388;37.844;2023-03-01T17:13:50;5.10;;;1.40;;